KAJR

Details ICAO KAJR
Name HABERSHAM CO
Region United States
Timezone America/New_York (UTC-4.0)
Plans Departing 5
Arriving 8
Stats Elevation 1,447 ft / 441 m (AMSL)
Location 34.499893° -83.556691°
Runways 1
Magnetic Variation 5.851° W
Sunrise 2018-05-27 10:26:05 UTC / 2018-05-27 06:26:05 Local
Sunset 2018-05-28 00:39:37 UTC / 2018-05-27 20:39:37 Local
Advertisement - Login to hide

Runways

ID Width Length Bearing (true) Bearing (mag) Surface Threshold Offset Overrun Length
06 100 ft / 30 m 5,497 ft / 1,675 m 57.18° 63.03° Asphalt 1,390 ft / 424 m 0 ft / 0 m
24 100 ft / 30 m 5,497 ft / 1,675 m 237.19° 243.04° Asphalt 0 ft / 0 m 0 ft / 0 m

Map

Weather


0- 5 10 15 20 25 30 35+ Temperature / ° C

Clouds and Precipitation
Forecast for 2018-05-27 18:00 UTC. Updated 5 hours ago

Ground ~20,000 ft ~40,000 ft Winds

METAR

KAJR 272215Z AUTO 16005KT 7SM CLR 24/22 A2996 RMK AO2 T02400218

TAF

Not found

Frequencies

Unicom 122.70 MHz CTAF/UNICOM
Warning: Do not use this data for real-world aviation or navigation. No guarantee of current accuracy is given.